Time;durP1;ratioP1;P1;durP2;ratioP2;P2;SDS_P1;SDS_P2;PMS_P1;PMS_P2;Temp;Humidity;BMP_temperature;BMP_pressure;BME280_temperature;BME280_humidity;BME280_pressure;Samples;Min_cycle;Max_cycle;Signal;HPM_P1;HPM_P2
2022/09/22 00:02:06;;;;;;;2.53;1.30;;;;;;;;;;4996067;28;20232;-74
2022/09/22 00:04:32;;;;;;;1.40;1.30;;;;;;;;;;5011860;28;20217;-73
2022/09/22 00:07:00;;;;;;;1.47;1.27;;;;;;;;;;4967226;28;20220;-73
2022/09/22 00:09:25;;;;;;;3.33;1.23;;;;;;;;;;5010849;28;20221;-73
2022/09/22 00:11:52;;;;;;;1.30;1.20;;;;;;;;;;4965086;28;20626;-74
2022/09/22 00:14:24;;;;;;;1.50;1.30;;;;;;;;;;4994220;28;20232;-73
2022/09/22 00:16:57;;;;;;;2.70;1.17;;;;;;;;;;4963686;28;20225;-73
2022/09/22 00:19:34;;;;;;;3.27;1.30;;;;;;;;;;5000250;28;20249;-73
2022/09/22 00:21:59;;;;;;;4.23;1.70;;;;;;;;;;4996102;28;20251;-73
2022/09/22 00:24:25;;;;;;;1.40;1.30;;;;;;;;;;4994529;28;20225;-72
2022/09/22 00:26:58;;;;;;;1.03;1.03;;;;;;;;;;4982043;28;20296;-73
2022/09/22 00:29:27;;;;;;;3.60;1.40;;;;;;;;;;4979833;28;20226;-73
2022/09/22 00:31:54;;;;;;;1.70;1.27;;;;;;;;;;4979052;28;20904;-72
2022/09/22 00:34:21;;;;;;;2.57;1.20;;;;;;;;;;4962571;28;20946;-73
2022/09/22 00:36:51;;;;;;;1.80;1.40;;;;;;;;;;4948964;28;20225;-73
2022/09/22 00:39:17;;;;;;;2.40;1.30;;;;;;;;;;4993670;28;20235;-73
2022/09/22 00:41:44;;;;;;;1.50;1.30;;;;;;;;;;4964430;28;20315;-72
2022/09/22 00:44:27;;;;;;;6.73;1.40;;;;;;;;;;5010638;28;20236;-72
2022/09/22 00:47:05;;;;;;;1.33;1.17;;;;;;;;;;5003309;28;20240;-73
2022/09/22 00:49:40;;;;;;;1.90;1.20;;;;;;;;;;4998233;28;20220;-73
2022/09/22 00:52:11;;;;;;;1.43;1.33;;;;;;;;;;4964462;28;20213;-73
2022/09/22 00:54:38;;;;;;;1.70;1.30;;;;;;;;;;4979530;28;20239;-73
2022/09/22 00:57:10;;;;;;;1.30;1.20;;;;;;;;;;4960162;28;20229;-72
2022/09/22 00:59:36;;;;;;;2.00;1.30;;;;;;;;;;4978960;28;20680;-73
2022/09/22 01:02:02;;;;;;;1.80;1.33;;;;;;;;;;4995851;28;20228;-73
2022/09/22 01:04:30;;;;;;;2.07;1.37;;;;;;;;;;4994946;28;20216;-72
2022/09/22 01:07:00;;;;;;;4.73;1.40;;;;;;;;;;4996307;28;20240;-73
2022/09/22 01:09:26;;;;;;;1.00;1.00;;;;;;;;;;4980123;28;20646;-73
2022/09/22 01:11:51;;;;;;;3.63;1.50;;;;;;;;;;4973748;28;20240;-72
2022/09/22 01:14:33;;;;;;;1.43;1.30;;;;;;;;;;4993070;28;20228;-72
2022/09/22 01:17:22;;;;;;;2.57;1.33;;;;;;;;;;4993171;28;20287;-73
2022/09/22 01:20:24;;;;;;;1.80;1.50;;;;;;;;;;4996232;28;20667;-73
2022/09/22 01:23:20;;;;;;;1.40;1.30;;;;;;;;;;5009682;28;20761;-73
2022/09/22 01:26:24;;;;;;;1.93;1.40;;;;;;;;;;5007762;28;20225;-72
2022/09/22 01:29:21;;;;;;;1.50;1.30;;;;;;;;;;4977524;28;20235;-73
2022/09/22 01:31:58;;;;;;;1.37;1.17;;;;;;;;;;4966275;28;20312;-73
2022/09/22 01:34:32;;;;;;;1.80;1.33;;;;;;;;;;4986758;28;20217;-73
2022/09/22 01:37:00;;;;;;;2.37;1.50;;;;;;;;;;4994434;28;20638;-73
2022/09/22 01:39:35;;;;;;;1.63;1.50;;;;;;;;;;4990435;28;20651;-74
2022/09/22 01:42:10;;;;;;;1.57;1.13;;;;;;;;;;4959896;28;20231;-74
2022/09/22 01:44:41;;;;;;;3.20;1.30;;;;;;;;;;4996049;28;20729;-72
2022/09/22 01:47:32;;;;;;;1.23;1.17;;;;;;;;;;4983224;28;20224;-73
2022/09/22 01:50:01;;;;;;;1.80;1.50;;;;;;;;;;5000297;28;20242;-72
2022/09/22 01:52:28;;;;;;;2.00;1.47;;;;;;;;;;4964929;28;20217;-73
2022/09/22 01:55:05;;;;;;;2.27;1.27;;;;;;;;;;4974948;28;20221;-72
2022/09/22 01:57:38;;;;;;;1.97;1.20;;;;;;;;;;4992205;28;20224;-73
2022/09/22 02:00:05;;;;;;;1.50;1.40;;;;;;;;;;4991971;28;20223;-73
2022/09/22 02:02:49;;;;;;;1.10;1.00;;;;;;;;;;4997553;28;20282;-73
2022/09/22 02:05:22;;;;;;;2.80;1.33;;;;;;;;;;5003810;28;20704;-72
2022/09/22 02:07:49;;;;;;;1.93;1.20;;;;;;;;;;4964398;28;20758;-73
2022/09/22 02:10:18;;;;;;;1.20;1.20;;;;;;;;;;4990402;28;20225;-73
2022/09/22 02:12:43;;;;;;;1.60;1.50;;;;;;;;;;4978423;28;20320;-73
2022/09/22 02:18:01;;;;;;;1.67;1.40;;;;;;;;;;4983282;28;20229;-73
2022/09/22 02:20:29;;;;;;;2.80;1.20;;;;;;;;;;4973920;28;20311;-72
2022/09/22 02:22:59;;;;;;;3.60;1.40;;;;;;;;;;4992210;28;20234;-72
2022/09/22 02:25:27;;;;;;;1.77;1.30;;;;;;;;;;4979481;28;20224;-73
2022/09/22 02:27:55;;;;;;;2.57;1.30;;;;;;;;;;4962955;28;20209;-73
2022/09/22 02:30:21;;;;;;;1.57;1.43;;;;;;;;;;4974764;28;20228;-73
2022/09/22 02:32:50;;;;;;;2.53;1.40;;;;;;;;;;4977224;28;20262;-72
2022/09/22 02:35:15;;;;;;;1.87;1.40;;;;;;;;;;4976476;28;20216;-72
2022/09/22 02:37:49;;;;;;;1.40;1.27;;;;;;;;;;4980908;28;20240;-73
2022/09/22 02:40:24;;;;;;;1.87;1.13;;;;;;;;;;5007436;28;20228;-73
2022/09/22 02:42:59;;;;;;;1.33;1.23;;;;;;;;;;5008728;28;20576;-73
2022/09/22 02:45:33;;;;;;;1.13;1.00;;;;;;;;;;4984916;28;20224;-72
2022/09/22 02:48:04;;;;;;;1.73;1.10;;;;;;;;;;4979532;28;20224;-73
2022/09/22 02:50:30;;;;;;;2.63;1.40;;;;;;;;;;4961852;28;20224;-73
2022/09/22 02:52:57;;;;;;;4.00;1.33;;;;;;;;;;4978762;28;20221;-72
2022/09/22 02:55:26;;;;;;;2.80;1.60;;;;;;;;;;4979017;28;20228;-72
2022/09/22 02:57:51;;;;;;;1.53;1.43;;;;;;;;;;4962288;28;20225;-73
2022/09/22 03:00:19;;;;;;;2.03;1.10;;;;;;;;;;5008475;28;20220;-72
2022/09/22 03:02:47;;;;;;;1.20;1.10;;;;;;;;;;4978905;28;20235;-73
2022/09/22 03:05:12;;;;;;;1.50;1.33;;;;;;;;;;4958547;28;20225;-73
2022/09/22 03:07:38;;;;;;;1.60;1.50;;;;;;;;;;4991271;28;20259;-73
2022/09/22 03:10:04;;;;;;;2.23;1.30;;;;;;;;;;4978583;28;20229;-74
2022/09/22 03:12:30;;;;;;;1.80;1.50;;;;;;;;;;4960256;28;20698;-73
2022/09/22 03:14:56;;;;;;;3.23;1.60;;;;;;;;;;5008240;28;20220;-73
2022/09/22 03:17:22;;;;;;;1.73;1.23;;;;;;;;;;5008185;28;20229;-72
2022/09/22 03:19:52;;;;;;;1.40;1.30;;;;;;;;;;4975426;28;20228;-72
2022/09/22 03:22:17;;;;;;;2.00;1.27;;;;;;;;;;4990454;28;20326;-72
2022/09/22 03:24:45;;;;;;;1.40;1.27;;;;;;;;;;4974324;28;20216;-73
2022/09/22 03:27:17;;;;;;;2.83;1.43;;;;;;;;;;4974910;28;20216;-73
2022/09/22 03:29:43;;;;;;;1.57;1.47;;;;;;;;;;4973410;28;20217;-72
2022/09/22 03:32:13;;;;;;;1.37;1.20;;;;;;;;;;4994270;28;20290;-73
2022/09/22 03:34:38;;;;;;;2.07;1.47;;;;;;;;;;4976631;28;20221;-72
2022/09/22 03:37:04;;;;;;;1.73;1.50;;;;;;;;;;4990908;28;20725;-72
2022/09/22 03:39:29;;;;;;;1.43;1.30;;;;;;;;;;4990059;28;20224;-71
2022/09/22 03:41:57;;;;;;;2.00;1.43;;;;;;;;;;4995398;28;20232;-72
2022/09/22 03:44:25;;;;;;;2.10;1.77;;;;;;;;;;4975536;28;20361;-72
2022/09/22 03:46:51;;;;;;;2.53;1.70;;;;;;;;;;4974467;28;20224;-73
2022/09/22 03:49:16;;;;;;;3.03;1.27;;;;;;;;;;4976404;28;20225;-72
2022/09/22 03:51:42;;;;;;;2.03;1.43;;;;;;;;;;5007947;28;20278;-71
2022/09/22 03:54:07;;;;;;;1.40;1.10;;;;;;;;;;4993456;28;20235;-72
2022/09/22 03:56:35;;;;;;;1.13;1.00;;;;;;;;;;4984326;28;20225;-71
2022/09/22 03:59:00;;;;;;;4.83;1.30;;;;;;;;;;5009701;28;20304;-72
2022/09/22 04:01:26;;;;;;;3.13;1.50;;;;;;;;;;4993311;28;20279;-72
2022/09/22 04:03:54;;;;;;;2.17;1.20;;;;;;;;;;5013132;28;20216;-72
2022/09/22 04:06:20;;;;;;;1.57;1.37;;;;;;;;;;4993154;28;20212;-72
2022/09/22 04:08:47;;;;;;;3.73;1.23;;;;;;;;;;4976132;28;20220;-72
2022/09/22 04:11:13;;;;;;;1.30;1.20;;;;;;;;;;4993142;28;20232;-71
2022/09/22 04:13:41;;;;;;;1.43;1.33;;;;;;;;;;4981097;28;20228;-71
2022/09/22 04:16:11;;;;;;;1.50;1.40;;;;;;;;;;4997422;28;20282;-71
2022/09/22 04:18:42;;;;;;;1.97;1.20;;;;;;;;;;4977971;28;20607;-71
2022/09/22 04:21:09;;;;;;;1.40;1.30;;;;;;;;;;4996190;28;21004;-72
2022/09/22 04:23:37;;;;;;;1.53;1.40;;;;;;;;;;4962055;28;20217;-71
2022/09/22 04:26:12;;;;;;;1.70;1.60;;;;;;;;;;4995985;28;20213;-71
2022/09/22 04:28:43;;;;;;;1.97;1.40;;;;;;;;;;4965964;28;20223;-71
2022/09/22 04:31:08;;;;;;;2.83;1.57;;;;;;;;;;5003055;28;20311;-72
2022/09/22 04:33:34;;;;;;;1.67;1.50;;;;;;;;;;5012361;28;20242;-72
2022/09/22 04:36:01;;;;;;;2.40;1.10;;;;;;;;;;4998224;28;20217;-71
2022/09/22 04:38:27;;;;;;;1.83;1.30;;;;;;;;;;5011106;28;20223;-71
2022/09/22 04:40:52;;;;;;;2.37;1.30;;;;;;;;;;4989175;28;20223;-72
2022/09/22 04:43:21;;;;;;;2.10;1.40;;;;;;;;;;4978500;28;21095;-72
2022/09/22 04:45:47;;;;;;;1.80;1.70;;;;;;;;;;5010345;28;20654;-71
2022/09/22 04:48:18;;;;;;;2.00;1.87;;;;;;;;;;5007483;28;20223;-71
2022/09/22 04:50:45;;;;;;;2.47;2.00;;;;;;;;;;5010051;28;20236;-72
2022/09/22 04:53:11;;;;;;;3.23;1.77;;;;;;;;;;5009103;28;20228;-71
2022/09/22 04:55:37;;;;;;;1.77;1.67;;;;;;;;;;4981361;28;20232;-72
2022/09/22 04:58:06;;;;;;;2.90;2.47;;;;;;;;;;5000296;28;20629;-72
2022/09/22 05:00:32;;;;;;;1.40;1.10;;;;;;;;;;4992659;28;20220;-72
2022/09/22 05:02:57;;;;;;;1.87;1.50;;;;;;;;;;4996917;28;20267;-71
2022/09/22 05:05:23;;;;;;;2.33;1.63;;;;;;;;;;5013447;28;20212;-71
2022/09/22 05:07:53;;;;;;;1.50;1.40;;;;;;;;;;5012038;28;20251;-72
2022/09/22 05:10:20;;;;;;;1.50;1.40;;;;;;;;;;4979736;28;20228;-72
2022/09/22 05:12:46;;;;;;;4.10;1.90;;;;;;;;;;4995717;28;20232;-71
2022/09/22 05:15:12;;;;;;;2.60;1.87;;;;;;;;;;4997748;28;20662;-71
2022/09/22 05:17:49;;;;;;;2.50;1.70;;;;;;;;;;4961292;28;20225;-71
2022/09/22 05:20:15;;;;;;;2.03;1.33;;;;;;;;;;5009693;28;20231;-72
2022/09/22 05:23:06;;;;;;;4.73;1.30;;;;;;;;;;4991255;28;20736;-71
2022/09/22 05:25:34;;;;;;;1.90;1.33;;;;;;;;;;4994689;28;20600;-71
2022/09/22 05:28:00;;;;;;;1.83;1.40;;;;;;;;;;5010894;28;20850;-71
2022/09/22 05:30:25;;;;;;;1.73;1.33;;;;;;;;;;4975914;28;20212;-71
2022/09/22 05:32:51;;;;;;;1.87;1.30;;;;;;;;;;4997640;28;20235;-71
2022/09/22 05:35:18;;;;;;;2.77;1.27;;;;;;;;;;4979288;28;20220;-71
2022/09/22 05:37:48;;;;;;;1.67;1.50;;;;;;;;;;4993055;28;20229;-71
2022/09/22 05:40:14;;;;;;;1.67;1.40;;;;;;;;;;4977904;28;20323;-72
2022/09/22 05:42:50;;;;;;;2.27;1.93;;;;;;;;;;4994577;28;20224;-71
2022/09/22 05:45:17;;;;;;;1.80;1.70;;;;;;;;;;5009947;28;20263;-71
2022/09/22 05:47:42;;;;;;;2.23;1.57;;;;;;;;;;5010707;28;20233;-72
2022/09/22 05:50:11;;;;;;;1.93;1.80;;;;;;;;;;4997308;28;20259;-71
2022/09/22 05:52:38;;;;;;;2.03;1.50;;;;;;;;;;4995343;28;20216;-73
2022/09/22 05:55:07;;;;;;;2.60;1.70;;;;;;;;;;4993399;28;20702;-72
2022/09/22 05:57:35;;;;;;;2.17;1.37;;;;;;;;;;4975304;28;20312;-71
2022/09/22 06:00:03;;;;;;;2.83;1.47;;;;;;;;;;4981613;28;20221;-71
2022/09/22 06:02:37;;;;;;;3.07;1.33;;;;;;;;;;4994508;28;20301;-71
2022/09/22 06:05:05;;;;;;;3.73;1.70;;;;;;;;;;4994692;28;20715;-71
2022/09/22 06:07:31;;;;;;;1.47;1.30;;;;;;;;;;5011962;28;20355;-71
2022/09/22 06:09:56;;;;;;;1.73;1.63;;;;;;;;;;4971643;28;20307;-72
2022/09/22 06:12:22;;;;;;;2.00;1.60;;;;;;;;;;4976764;28;20240;-72
2022/09/22 06:14:48;;;;;;;2.03;1.60;;;;;;;;;;5007761;28;20225;-72
2022/09/22 06:17:13;;;;;;;2.43;1.80;;;;;;;;;;4978594;28;20224;-72
2022/09/22 06:19:39;;;;;;;4.70;2.33;;;;;;;;;;5008391;28;20239;-72
2022/09/22 06:22:09;;;;;;;2.17;1.90;;;;;;;;;;5012119;28;20240;-72
2022/09/22 06:24:35;;;;;;;3.93;1.80;;;;;;;;;;4975370;28;20223;-72
2022/09/22 06:27:03;;;;;;;3.23;1.50;;;;;;;;;;4977981;28;20653;-72
2022/09/22 06:29:29;;;;;;;2.70;2.00;;;;;;;;;;4975497;28;20267;-71
2022/09/22 06:31:56;;;;;;;3.50;1.80;;;;;;;;;;5008792;28;20228;-72
2022/09/22 06:34:22;;;;;;;2.13;1.70;;;;;;;;;;5008323;28;20283;-72
2022/09/22 06:36:50;;;;;;;1.73;1.40;;;;;;;;;;4995201;28;20232;-71
2022/09/22 06:39:17;;;;;;;2.53;1.60;;;;;;;;;;4993493;28;20221;-71
2022/09/22 06:41:46;;;;;;;3.13;1.83;;;;;;;;;;4992378;28;20237;-72
2022/09/22 06:44:15;;;;;;;2.43;1.47;;;;;;;;;;4995858;28;20228;-72
2022/09/22 06:46:41;;;;;;;1.53;1.30;;;;;;;;;;4996138;28;20220;-71
2022/09/22 06:49:07;;;;;;;1.77;1.50;;;;;;;;;;4988560;28;20954;-71
2022/09/22 06:51:37;;;;;;;4.63;1.97;;;;;;;;;;4972486;28;20263;-71
2022/09/22 06:54:05;;;;;;;1.87;1.50;;;;;;;;;;4980065;28;20255;-71
2022/09/22 06:56:38;;;;;;;2.60;1.73;;;;;;;;;;4964974;28;20236;-71
2022/09/22 06:59:09;;;;;;;1.67;1.57;;;;;;;;;;5004761;28;20320;-72
2022/09/22 07:01:37;;;;;;;3.13;1.60;;;;;;;;;;4989543;28;20228;-71
2022/09/22 07:04:03;;;;;;;2.60;1.50;;;;;;;;;;4996749;28;20225;-73
2022/09/22 07:06:28;;;;;;;3.60;1.43;;;;;;;;;;4995788;28;20294;-73
2022/09/22 07:08:56;;;;;;;2.20;1.60;;;;;;;;;;4986748;28;20237;-72
2022/09/22 07:11:24;;;;;;;3.40;1.90;;;;;;;;;;4976970;28;22495;-73
2022/09/22 07:13:53;;;;;;;1.90;1.80;;;;;;;;;;4992577;28;20245;-71
2022/09/22 07:16:21;;;;;;;2.40;1.83;;;;;;;;;;4994630;28;20233;-72
2022/09/22 07:18:54;;;;;;;2.63;2.17;;;;;;;;;;4976494;28;20221;-72
2022/09/22 07:21:23;;;;;;;2.87;2.07;;;;;;;;;;4993846;28;20236;-72
2022/09/22 07:23:57;;;;;;;2.13;1.90;;;;;;;;;;4978251;28;20225;-73
2022/09/22 07:26:35;;;;;;;2.20;1.90;;;;;;;;;;4969473;28;20225;-73
2022/09/22 07:29:02;;;;;;;2.53;1.90;;;;;;;;;;5007859;28;20274;-72
2022/09/22 07:31:30;;;;;;;2.20;1.80;;;;;;;;;;5007167;28;20220;-72
2022/09/22 07:33:58;;;;;;;1.73;1.60;;;;;;;;;;4995196;28;20228;-73
2022/09/22 07:36:28;;;;;;;3.30;1.60;;;;;;;;;;4979195;28;20263;-71
2022/09/22 07:38:56;;;;;;;2.97;1.33;;;;;;;;;;4995483;28;20640;-71
2022/09/22 07:41:28;;;;;;;1.30;1.20;;;;;;;;;;4976687;28;20606;-73
2022/09/22 07:45:11;;;;;;;2.33;1.20;;;;;;;;;;4997518;28;20228;-72
2022/09/22 07:46:46;;;;;;;1.43;1.33;;;;;;;;;;4981754;28;20229;-71
2022/09/22 07:49:16;;;;;;;3.10;1.27;;;;;;;;;;4999683;28;20212;-72
2022/09/22 07:51:42;;;;;;;2.30;1.30;;;;;;;;;;5010857;28;20321;-72
2022/09/22 07:54:08;;;;;;;2.17;1.57;;;;;;;;;;4982190;28;20213;-72
2022/09/22 07:56:39;;;;;;;1.90;1.57;;;;;;;;;;4978795;28;20286;-73
2022/09/22 07:59:09;;;;;;;3.53;1.20;;;;;;;;;;4994331;28;20809;-72
2022/09/22 08:01:34;;;;;;;2.90;1.20;;;;;;;;;;4997233;28;20640;-72
2022/09/22 08:04:00;;;;;;;1.57;1.00;;;;;;;;;;4995272;28;20343;-73
2022/09/22 08:06:26;;;;;;;4.50;1.20;;;;;;;;;;4986151;28;20695;-73
2022/09/22 08:08:55;;;;;;;2.53;1.10;;;;;;;;;;4978118;28;20236;-72
2022/09/22 08:11:27;;;;;;;1.33;1.00;;;;;;;;;;4994132;28;20741;-72
2022/09/22 08:13:56;;;;;;;2.17;1.13;;;;;;;;;;4997638;28;20271;-73
2022/09/22 08:16:23;;;;;;;2.50;0.97;;;;;;;;;;4994888;28;20228;-74
2022/09/22 08:18:50;;;;;;;1.00;0.90;;;;;;;;;;4993310;28;20221;-74
2022/09/22 08:21:21;;;;;;;2.53;0.87;;;;;;;;;;5010922;28;20232;-72
2022/09/22 08:23:51;;;;;;;3.47;0.90;;;;;;;;;;4981538;28;20216;-72
2022/09/22 08:26:16;;;;;;;2.87;1.00;;;;;;;;;;4996481;28;20965;-71
2022/09/22 08:28:45;;;;;;;1.30;1.00;;;;;;;;;;4997492;28;20240;-71
2022/09/22 08:31:13;;;;;;;2.90;1.17;;;;;;;;;;4976091;28;21053;-71
2022/09/22 08:33:43;;;;;;;1.47;0.90;;;;;;;;;;5010676;28;20255;-71
2022/09/22 08:36:11;;;;;;;1.58;1.08;;;;;;;;;;4997118;28;20294;-71
2022/09/22 08:38:37;;;;;;;3.03;1.20;;;;;;;;;;4977311;28;20630;-71
2022/09/22 08:41:26;;;;;;;1.20;0.80;;;;;;;;;;4994137;28;20229;-71
2022/09/22 08:43:56;;;;;;;1.95;0.77;;;;;;;;;;5010305;28;20229;-71
2022/09/22 08:46:26;;;;;;;0.87;0.60;;;;;;;;;;5012674;28;20216;-72
2022/09/22 08:51:55;;;;;;;1.57;0.70;;;;;;;;;;4996958;28;20274;-72
2022/09/22 08:54:30;;;;;;;2.07;0.80;;;;;;;;;;4982186;28;20228;-72
2022/09/22 08:56:56;;;;;;;2.10;0.90;;;;;;;;;;4981282;28;20244;-72
2022/09/22 08:59:23;;;;;;;1.02;0.68;;;;;;;;;;4993400;28;20257;-72
2022/09/22 09:02:19;;;;;;;3.78;1.00;;;;;;;;;;4982113;28;20292;-72
2022/09/22 09:05:15;;;;;;;1.27;0.85;;;;;;;;;;5008993;28;20225;-71
2022/09/22 09:08:11;;;;;;;2.58;0.93;;;;;;;;;;5008935;28;20231;-71
2022/09/22 09:10:46;;;;;;;2.38;0.93;;;;;;;;;;4996027;28;20220;-71
2022/09/22 09:13:28;;;;;;;1.25;0.90;;;;;;;;;;4974672;28;20219;-71
2022/09/22 09:16:13;;;;;;;4.72;0.70;;;;;;;;;;4962064;28;22432;-70
2022/09/22 09:18:49;;;;;;;1.83;0.85;;;;;;;;;;5009823;28;20224;-72
2022/09/22 09:21:17;;;;;;;3.83;0.82;;;;;;;;;;4993140;28;20282;-70
2022/09/22 09:23:45;;;;;;;5.63;0.90;;;;;;;;;;4976827;28;20213;-71
2022/09/22 09:26:10;;;;;;;1.10;0.80;;;;;;;;;;4968715;28;20299;-73
2022/09/22 09:28:41;;;;;;;1.85;0.88;;;;;;;;;;4986695;28;20238;-71
2022/09/22 09:31:32;;;;;;;1.58;0.65;;;;;;;;;;4979164;28;20714;-73
2022/09/22 09:34:06;;;;;;;1.77;0.60;;;;;;;;;;4977571;28;20749;-70
2022/09/22 09:36:36;;;;;;;2.88;0.85;;;;;;;;;;4962743;28;20237;-72
2022/09/22 09:39:14;;;;;;;1.25;0.70;;;;;;;;;;4994305;28;20599;-72
2022/09/22 09:41:45;;;;;;;1.60;0.85;;;;;;;;;;4977227;28;20311;-72
2022/09/22 09:44:21;;;;;;;1.05;0.82;;;;;;;;;;4976782;28;20225;-72
2022/09/22 09:47:13;;;;;;;1.00;0.70;;;;;;;;;;4976817;28;20225;-72
2022/09/22 09:49:38;;;;;;;1.85;0.90;;;;;;;;;;4998460;28;20859;-73
2022/09/22 09:52:07;;;;;;;1.73;0.80;;;;;;;;;;4995058;28;20236;-72
2022/09/22 09:54:34;;;;;;;3.90;0.90;;;;;;;;;;4977217;28;20236;-70
2022/09/22 09:57:11;;;;;;;1.95;0.85;;;;;;;;;;4962026;28;20241;-70
2022/09/22 10:02:36;;;;;;;2.53;0.90;;;;;;;;;;4991945;28;20702;-70
2022/09/22 10:05:17;;;;;;;3.78;1.13;;;;;;;;;;4963499;28;20726;-72
2022/09/22 10:07:44;;;;;;;2.42;0.80;;;;;;;;;;5008600;28;20756;-73
2022/09/22 10:10:30;;;;;;;1.65;0.85;;;;;;;;;;4996149;28;20560;-72
2022/09/22 10:13:03;;;;;;;3.60;1.00;;;;;;;;;;5008421;28;20229;-73
2022/09/22 10:15:35;;;;;;;2.50;0.82;;;;;;;;;;5009491;28;20231;-71
2022/09/22 10:18:01;;;;;;;2.47;0.93;;;;;;;;;;4959381;28;20244;-70
2022/09/22 10:20:30;;;;;;;2.35;1.00;;;;;;;;;;4977388;28;20204;-73
2022/09/22 10:23:18;;;;;;;2.33;1.13;;;;;;;;;;4993545;28;20229;-73
2022/09/22 10:25:43;;;;;;;1.10;0.70;;;;;;;;;;5005185;28;20225;-70
2022/09/22 10:28:16;;;;;;;1.75;1.00;;;;;;;;;;5010398;28;20270;-73
2022/09/22 10:31:11;;;;;;;0.90;0.70;;;;;;;;;;4978008;28;20231;-75
2022/09/22 10:33:36;;;;;;;3.00;0.88;;;;;;;;;;4956733;28;20221;-73
2022/09/22 10:36:05;;;;;;;2.60;1.08;;;;;;;;;;4977912;28;20267;-74
2022/09/22 10:38:38;;;;;;;1.25;0.60;;;;;;;;;;4990378;28;20577;-72
2022/09/22 10:41:16;;;;;;;3.30;1.00;;;;;;;;;;5005496;28;20671;-74
2022/09/22 10:43:47;;;;;;;1.77;0.70;;;;;;;;;;4982786;28;20232;-72
2022/09/22 10:46:47;;;;;;;4.65;0.98;;;;;;;;;;4992782;28;21208;-72
2022/09/22 10:49:39;;;;;;;3.97;0.88;;;;;;;;;;4992237;28;20264;-73
2022/09/22 10:52:14;;;;;;;2.88;0.90;;;;;;;;;;4980774;28;20581;-73
2022/09/22 10:54:45;;;;;;;4.55;0.80;;;;;;;;;;4988737;28;20228;-73
2022/09/22 10:57:32;;;;;;;3.08;0.90;;;;;;;;;;4994342;28;20239;-72
2022/09/22 11:00:00;;;;;;;1.63;0.65;;;;;;;;;;4985237;28;20225;-72
2022/09/22 11:02:55;;;;;;;3.03;0.80;;;;;;;;;;4998210;28;20223;-72
2022/09/22 11:14:16;;;;;;;1.80;0.70;;;;;;;;;;4993857;28;20224;-72
2022/09/22 11:16:45;;;;;;;1.73;0.77;;;;;;;;;;4996710;28;20762;-73
2022/09/22 11:19:26;;;;;;;1.85;0.90;;;;;;;;;;4995743;28;20676;-74
2022/09/22 11:22:04;;;;;;;1.48;0.77;;;;;;;;;;4981869;28;20635;-72
2022/09/22 11:24:43;;;;;;;1.70;0.75;;;;;;;;;;4996588;28;20224;-72
2022/09/22 11:27:39;;;;;;;2.55;1.00;;;;;;;;;;4996723;28;20224;-73
2022/09/22 11:30:25;;;;;;;1.33;0.75;;;;;;;;;;4948130;28;20233;-74
2022/09/22 11:33:12;;;;;;;1.90;0.85;;;;;;;;;;4999033;28;20224;-75
2022/09/22 11:36:07;;;;;;;1.48;0.88;;;;;;;;;;5010992;28;20606;-75
2022/09/22 11:38:44;;;;;;;2.55;0.68;;;;;;;;;;5009101;28;20691;-74
2022/09/22 11:41:40;;;;;;;2.25;0.80;;;;;;;;;;5011108;28;20228;-74
2022/09/22 11:44:16;;;;;;;1.85;0.75;;;;;;;;;;4976883;28;20702;-74
2022/09/22 11:47:15;;;;;;;1.02;0.70;;;;;;;;;;4994796;28;20225;-73
2022/09/22 11:49:43;;;;;;;1.95;1.00;;;;;;;;;;4992225;28;20228;-71
2022/09/22 11:52:17;;;;;;;1.15;0.55;;;;;;;;;;5003113;28;20250;-71
2022/09/22 11:55:01;;;;;;;1.48;0.60;;;;;;;;;;5008333;28;20330;-72
2022/09/22 11:57:30;;;;;;;0.82;0.60;;;;;;;;;;4996945;28;20263;-71
2022/09/22 12:00:01;;;;;;;2.22;0.85;;;;;;;;;;4962256;28;20723;-72
2022/09/22 12:02:55;;;;;;;2.03;0.70;;;;;;;;;;4998238;28;20706;-71
2022/09/22 12:05:45;;;;;;;0.95;0.70;;;;;;;;;;5010657;28;20259;-72
2022/09/22 12:08:19;;;;;;;2.88;0.82;;;;;;;;;;4979682;28;20751;-73
2022/09/22 12:10:49;;;;;;;3.50;0.85;;;;;;;;;;4991308;28;20232;-72
2022/09/22 12:13:24;;;;;;;1.02;0.60;;;;;;;;;;4977131;28;20229;-75
2022/09/22 12:16:08;;;;;;;1.60;0.80;;;;;;;;;;4997456;28;20239;-71
2022/09/22 12:19:04;;;;;;;2.60;0.80;;;;;;;;;;5013602;28;20229;-71
2022/09/22 12:21:31;;;;;;;0.70;0.70;;;;;;;;;;5005516;28;20352;-73
2022/09/22 12:24:06;;;;;;;3.38;0.77;;;;;;;;;;5010329;28;20602;-72
2022/09/22 12:26:33;;;;;;;1.20;0.65;;;;;;;;;;4988048;28;20227;-73
2022/09/22 12:29:26;;;;;;;2.17;0.90;;;;;;;;;;4977671;28;20221;-73
2022/09/22 12:31:55;;;;;;;2.42;0.60;;;;;;;;;;4990308;28;20286;-71
2022/09/22 12:34:38;;;;;;;1.63;1.00;;;;;;;;;;4980879;28;20233;-72
2022/09/22 12:37:11;;;;;;;1.52;0.70;;;;;;;;;;4995441;28;20398;-71
2022/09/22 12:39:44;;;;;;;2.60;0.70;;;;;;;;;;4958932;28;20221;-72
2022/09/22 12:42:20;;;;;;;1.90;1.02;;;;;;;;;;4976738;28;20263;-71
2022/09/22 12:44:52;;;;;;;1.60;0.73;;;;;;;;;;4976386;28;20310;-71
2022/09/22 12:47:33;;;;;;;0.95;0.77;;;;;;;;;;5009082;28;20228;-71
2022/09/22 12:50:24;;;;;;;2.63;1.60;;;;;;;;;;4980801;28;20233;-71
2022/09/22 12:52:50;;;;;;;5.90;2.70;;;;;;;;;;4993384;28;20927;-72
2022/09/22 12:55:27;;;;;;;3.25;1.88;;;;;;;;;;4995239;28;20226;-71
2022/09/22 12:58:03;;;;;;;2.20;2.00;;;;;;;;;;5009631;28;20607;-73
2022/09/22 13:00:36;;;;;;;3.05;1.73;;;;;;;;;;4958399;28;20232;-72
2022/09/22 13:03:24;;;;;;;2.75;1.48;;;;;;;;;;4981164;28;20224;-72
2022/09/22 13:06:05;;;;;;;2.63;1.10;;;;;;;;;;5000474;28;20707;-72
2022/09/22 13:08:31;;;;;;;2.47;1.20;;;;;;;;;;4963330;28;20216;-73
2022/09/22 13:11:00;;;;;;;1.58;0.90;;;;;;;;;;5009515;28;20248;-74
2022/09/22 13:13:28;;;;;;;1.98;0.80;;;;;;;;;;5010861;28;20713;-72
2022/09/22 13:15:55;;;;;;;0.68;0.60;;;;;;;;;;4987536;28;20585;-72
2022/09/22 13:18:57;;;;;;;2.03;0.90;;;;;;;;;;5010423;28;20236;-72
2022/09/22 13:21:33;;;;;;;1.33;0.90;;;;;;;;;;4975368;28;20236;-71
2022/09/22 13:24:00;;;;;;;1.33;0.88;;;;;;;;;;4993913;28;20290;-73
2022/09/22 13:26:29;;;;;;;1.70;0.70;;;;;;;;;;4960042;28;20224;-72
2022/09/22 13:29:11;;;;;;;1.10;0.77;;;;;;;;;;4995881;28;20706;-72
2022/09/22 13:31:56;;;;;;;0.88;0.68;;;;;;;;;;4992664;28;20358;-73
2022/09/22 13:34:34;;;;;;;1.13;0.75;;;;;;;;;;4961762;28;20691;-72
2022/09/22 13:37:21;;;;;;;1.02;0.80;;;;;;;;;;4978056;28;20298;-71
2022/09/22 13:39:52;;;;;;;2.63;0.80;;;;;;;;;;4996233;28;20232;-72
2022/09/22 13:42:21;;;;;;;2.03;1.00;;;;;;;;;;4973744;28;20271;-73
2022/09/22 13:45:17;;;;;;;2.47;0.90;;;;;;;;;;5012256;28;20591;-72
2022/09/22 13:47:44;;;;;;;2.10;0.80;;;;;;;;;;4990976;28;20331;-72
2022/09/22 13:50:12;;;;;;;1.70;0.90;;;;;;;;;;4994428;28;20713;-72
2022/09/22 13:52:38;;;;;;;2.15;0.90;;;;;;;;;;4976922;28;20247;-72
2022/09/22 13:55:21;;;;;;;2.55;1.05;;;;;;;;;;4978823;28;20315;-71
2022/09/22 13:57:47;;;;;;;1.67;0.85;;;;;;;;;;5008977;28;20233;-73
2022/09/22 14:00:25;;;;;;;1.98;0.80;;;;;;;;;;4993024;28;20219;-72
2022/09/22 14:02:54;;;;;;;1.05;0.73;;;;;;;;;;4979048;28;20315;-73
2022/09/22 14:05:25;;;;;;;1.85;0.73;;;;;;;;;;4994978;28;23260;-73
2022/09/22 14:07:53;;;;;;;1.30;0.93;;;;;;;;;;4996247;28;20229;-72
2022/09/22 14:10:22;;;;;;;1.67;0.85;;;;;;;;;;4974295;28;20757;-71
2022/09/22 14:12:50;;;;;;;1.42;0.82;;;;;;;;;;4975621;28;21150;-73
2022/09/22 14:15:33;;;;;;;2.97;1.70;;;;;;;;;;5008030;28;20264;-73
2022/09/22 14:18:00;;;;;;;1.75;1.23;;;;;;;;;;4989205;28;20216;-73
2022/09/22 14:20:27;;;;;;;1.58;0.73;;;;;;;;;;4997005;28;20235;-73
2022/09/22 14:22:53;;;;;;;1.80;0.90;;;;;;;;;;4975114;28;20792;-73
2022/09/22 14:25:21;;;;;;;2.50;1.00;;;;;;;;;;4976827;28;20216;-74
2022/09/22 14:27:54;;;;;;;1.33;0.82;;;;;;;;;;4979258;28;20331;-74
2022/09/22 14:30:25;;;;;;;1.80;0.90;;;;;;;;;;4992416;28;20225;-74
2022/09/22 14:32:59;;;;;;;1.17;0.60;;;;;;;;;;4980694;28;20367;-74
2022/09/22 14:35:30;;;;;;;1.05;0.70;;;;;;;;;;4957217;28;20733;-74
2022/09/22 14:37:56;;;;;;;2.50;0.80;;;;;;;;;;5008322;28;20737;-74
2022/09/22 14:40:27;;;;;;;0.70;0.70;;;;;;;;;;4961888;28;20221;-74
2022/09/22 14:43:10;;;;;;;0.55;0.50;;;;;;;;;;4990329;28;20637;-74
2022/09/22 14:45:36;;;;;;;1.98;0.80;;;;;;;;;;4975089;28;20216;-73
2022/09/22 14:48:09;;;;;;;1.20;0.75;;;;;;;;;;4947066;28;20613;-74
2022/09/22 14:50:45;;;;;;;2.20;1.05;;;;;;;;;;4995978;28;20220;-74
2022/09/22 14:53:16;;;;;;;1.15;0.70;;;;;;;;;;4979708;28;20303;-75
2022/09/22 14:55:46;;;;;;;1.30;0.75;;;;;;;;;;5006144;28;20244;-74
2022/09/22 14:58:33;;;;;;;1.42;0.88;;;;;;;;;;4992247;28;20213;-74
2022/09/22 15:04:00;;;;;;;1.65;0.80;;;;;;;;;;4989422;28;20279;-74
2022/09/22 15:06:30;;;;;;;0.82;0.70;;;;;;;;;;4989647;28;20220;-74
2022/09/22 15:08:59;;;;;;;1.13;0.70;;;;;;;;;;4961141;28;20312;-74
2022/09/22 15:11:46;;;;;;;2.25;0.80;;;;;;;;;;4985617;28;20228;-74
2022/09/22 15:14:30;;;;;;;0.73;0.73;;;;;;;;;;4973961;28;20259;-75
2022/09/22 15:18:12;;;;;;;6.28;1.30;;;;;;;;;;4993250;28;20231;-75
2022/09/22 15:19:48;;;;;;;0.88;0.80;;;;;;;;;;4981342;28;20224;-74
2022/09/22 15:22:17;;;;;;;2.25;0.80;;;;;;;;;;4992344;28;20221;-75
2022/09/22 15:24:45;;;;;;;1.85;0.90;;;;;;;;;;4974276;28;20642;-75
2022/09/22 15:27:19;;;;;;;2.45;1.00;;;;;;;;;;4977733;28;20723;-76
2022/09/22 15:29:55;;;;;;;1.08;0.95;;;;;;;;;;4979517;28;20237;-72
2022/09/22 15:32:21;;;;;;;1.42;0.90;;;;;;;;;;4989638;28;20224;-75
2022/09/22 15:34:46;;;;;;;1.63;1.00;;;;;;;;;;4964281;28;20312;-73